Saxton, Illinois
Current Conditions -  °F | °C
As of 2:35 PM on Thursday 29 Jan 2015 (Local Time) from KC75 Reporting Station
Overcast Overcast  
Wind Chill: 27°   Ceiling: 2500
Heat Index: 35°   Visibility: 10mi
Dew Point: 30°   Wind: 12mph
Humidity: 81%   Direction: 310°NW
Pressure: 30.11"   Gusts: NA
Location:  41.1043°N, 89.8577°W
Report Text: KC75 292035Z AUTO 31010KT 10SM BKN025 OVC033 02/M01 A3011 RMK AO2 T00181011
Loading
Personal Weather Stations






























Interactive Weather Map New forecast layout! Learn more

10-Day Weather Forecast

Advertisements
Track Severe Weather on mobile